Silva Jardim, Brazil
Current Conditions -  °F | °C
As of 7:00 PM on Saturday 25 Oct 2014 (Local Time) from SBES Reporting Station
Broken Clouds Broken Clouds  
Wind Chill: 73°   Ceiling: 9000
Heat Index: 73°   Visibility: 6mi
Dew Point: 66°   Wind: 14mph
Humidity: 78%   Direction: 60°ENE
Pressure: 29.91"   Gusts: NA
Location:  22.65°S, 42.4°W
Report Text: SBES 252100Z 06012KT 9999 SCT040 BKN090 23/19 Q1013
Loading
Personal Weather Stations






























Interactive Weather Map
Tropical Storm Tracking
New forecast layout! Learn more

10-Day Weather Forecast

Advertisements
Track Severe Weather on mobile